createdAt,value
2023-05-23T00:00:17.171Z,10.25
2023-05-23T00:02:52.518Z,9.93
2023-05-23T00:05:28.407Z,13.57
2023-05-23T00:08:02.918Z,10.75
2023-05-23T00:10:38.049Z,11.85
2023-05-23T00:13:14.826Z,11.82
2023-05-23T00:15:50.295Z,10.15
2023-05-23T00:18:26.576Z,12.02
2023-05-23T00:21:01.902Z,13.82
2023-05-23T00:23:36.885Z,12.88
2023-05-23T00:26:11.696Z,11.15
2023-05-23T00:28:53.980Z,11.73
2023-05-23T00:31:29.222Z,13.90
2023-05-23T00:34:07.441Z,13.85
2023-05-23T00:36:43.485Z,14.25
2023-05-23T00:39:21.372Z,9.93
2023-05-23T00:41:57.109Z,11.27
2023-05-23T00:44:35.387Z,9.50
2023-05-23T00:47:12.851Z,10.55
2023-05-23T00:49:47.232Z,11.30
2023-05-23T00:52:23.212Z,12.65
2023-05-23T00:54:58.418Z,12.98
2023-05-23T00:57:33.235Z,11.48
2023-05-23T01:00:11.889Z,14.40
2023-05-23T01:02:49.971Z,14.38
2023-05-23T01:05:26.635Z,10.70
2023-05-23T01:08:01.299Z,10.85
2023-05-23T01:10:36.242Z,12.43
2023-05-23T01:13:17.774Z,11.20
2023-05-23T01:15:56.203Z,11.80
2023-05-23T01:18:34.756Z,11.30
2023-05-23T01:21:11.675Z,11.82
2023-05-23T01:24:08.746Z,10.60
2023-05-23T01:26:52.065Z,12.75
2023-05-23T01:29:30.808Z,11.07
2023-05-23T01:32:06.034Z,9.57
2023-05-23T01:34:42.432Z,12.52
2023-05-23T01:37:20.390Z,9.90
2023-05-23T01:39:55.231Z,10.73
2023-05-23T01:42:29.809Z,10.57
2023-05-23T01:45:06.749Z,10.93
2023-05-23T01:47:42.127Z,10.40
2023-05-23T01:50:17.586Z,12.20
2023-05-23T01:52:52.451Z,13.48
2023-05-23T01:55:31.897Z,9.48
2023-05-23T01:58:07.740Z,10.30
2023-05-23T02:00:44.222Z,7.60
2023-05-23T02:03:21.403Z,7.85
2023-05-23T02:05:57.341Z,9.90
2023-05-23T02:08:34.039Z,9.68
2023-05-23T02:11:10.495Z,10.63
2023-05-23T02:13:44.930Z,7.93
2023-05-23T02:16:22.548Z,8.88
2023-05-23T02:18:57.956Z,9.10
2023-05-23T02:21:35.274Z,11.50
2023-05-23T02:24:10.670Z,7.25
2023-05-23T02:26:45.703Z,6.40
2023-05-23T02:29:20.754Z,8.43
2023-05-23T02:31:57.340Z,9.68
2023-05-23T02:34:31.852Z,7.25
2023-05-23T02:37:08.102Z,9.82
2023-05-23T02:39:45.144Z,7.05
2023-05-23T02:42:20.534Z,9.80
2023-05-23T02:44:54.928Z,8.55
2023-05-23T02:47:32.410Z,7.68
2023-05-23T02:50:07.138Z,7.80
2023-05-23T02:52:41.951Z,7.75
2023-05-23T02:55:16.559Z,7.40
2023-05-23T02:57:55.045Z,12.77
2023-05-23T03:00:30.201Z,10.85
2023-05-23T03:03:06.916Z,8.80
2023-05-23T03:05:41.643Z,9.38
2023-05-23T03:08:17.214Z,10.23
2023-05-23T03:10:52.177Z,7.50
2023-05-23T03:13:26.866Z,8.02
2023-05-23T03:16:01.278Z,7.35
2023-05-23T03:18:38.365Z,8.07
2023-05-23T03:21:13.447Z,12.82
2023-05-23T03:23:48.483Z,9.15
2023-05-23T03:26:23.692Z,12.02
2023-05-23T03:28:58.922Z,12.73
2023-05-23T03:31:33.803Z,8.60
2023-05-23T03:34:10.426Z,14.30
2023-05-23T03:36:44.831Z,14.27
2023-05-23T03:39:19.839Z,9.65
2023-05-23T03:41:54.732Z,10.15
2023-05-23T03:44:29.831Z,10.65
2023-05-23T03:47:04.394Z,9.75
2023-05-23T03:49:41.360Z,7.53
2023-05-23T03:52:16.135Z,8.05
2023-05-23T03:54:52.307Z,12.52
2023-05-23T03:57:27.015Z,10.18
2023-05-23T04:00:02.229Z,7.72
2023-05-23T04:02:38.301Z,13.98
2023-05-23T04:05:15.263Z,8.88
2023-05-23T04:07:50.254Z,14.25
2023-05-23T04:10:25.432Z,8.00
2023-05-23T04:13:02.540Z,10.63
2023-05-23T04:15:38.032Z,8.65
2023-05-23T04:18:16.740Z,9.93
2023-05-23T04:20:54.390Z,9.68
2023-05-23T04:23:29.172Z,11.32
2023-05-23T04:26:04.585Z,9.32
2023-05-23T04:28:48.103Z,6.57
2023-05-23T04:31:23.988Z,7.80
2023-05-23T04:33:59.564Z,9.85
2023-05-23T04:36:39.663Z,6.30
2023-05-23T04:39:14.750Z,7.38
2023-05-23T04:42:02.404Z,5.68
2023-05-23T04:44:59.302Z,13.80
2023-05-23T04:48:11.923Z,9.73
2023-05-23T04:50:50.565Z,7.57
2023-05-23T04:53:29.189Z,7.97
2023-05-23T04:56:05.706Z,7.88
2023-05-23T04:58:42.245Z,10.63
2023-05-23T05:01:20.648Z,7.97
2023-05-23T05:03:57.652Z,7.10
2023-05-23T05:06:32.746Z,9.35
2023-05-23T05:09:09.417Z,6.80
2023-05-23T05:11:44.052Z,7.43
2023-05-23T05:14:19.471Z,8.95
2023-05-23T05:16:54.470Z,9.30
2023-05-23T05:19:30.057Z,11.25
2023-05-23T05:22:04.542Z,10.48
2023-05-23T05:24:42.433Z,10.50
2023-05-23T05:27:17.551Z,12.20
2023-05-23T05:29:53.015Z,7.85
2023-05-23T05:32:27.822Z,6.53
2023-05-23T05:35:03.132Z,7.88
2023-05-23T05:37:38.067Z,9.60
2023-05-23T05:40:16.528Z,11.60
2023-05-23T05:42:51.357Z,8.18
2023-05-23T05:45:30.560Z,6.78
2023-05-23T05:48:05.841Z,7.85
2023-05-23T05:50:43.826Z,8.90
2023-05-23T05:53:22.408Z,7.40
2023-05-23T05:56:00.117Z,8.55
2023-05-23T05:58:35.371Z,9.48
2023-05-23T06:01:14.233Z,9.02
2023-05-23T06:03:50.037Z,11.25
2023-05-23T06:06:26.397Z,8.98
2023-05-23T06:09:01.638Z,11.10
2023-05-23T06:11:41.361Z,7.72
2023-05-23T06:14:15.741Z,6.72
2023-05-23T06:16:54.046Z,7.00
2023-05-23T06:19:29.058Z,8.82
2023-05-23T06:22:04.604Z,5.22
2023-05-23T06:24:39.540Z,8.70
2023-05-23T06:27:17.281Z,6.97
2023-05-23T06:29:52.193Z,8.82
2023-05-23T06:32:28.763Z,6.53
2023-05-23T06:35:04.804Z,10.10
2023-05-23T06:37:45.269Z,9.27
2023-05-23T06:40:20.137Z,11.57
2023-05-23T06:42:56.779Z,10.23
2023-05-23T06:45:39.980Z,7.57
2023-05-23T06:48:20.360Z,7.18
2023-05-23T06:50:56.526Z,9.65
2023-05-23T06:53:32.342Z,8.70
2023-05-23T06:56:07.182Z,8.57
2023-05-23T06:58:54.303Z,8.93
2023-05-23T07:01:29.588Z,9.77
2023-05-23T07:04:04.662Z,9.80
2023-05-23T07:06:41.507Z,10.18
2023-05-23T07:09:17.326Z,9.05
2023-05-23T07:11:52.358Z,9.82
2023-05-23T07:14:33.950Z,10.32
2023-05-23T07:17:11.985Z,11.40
2023-05-23T07:19:47.500Z,8.23
2023-05-23T07:22:22.557Z,10.75
2023-05-23T07:24:57.582Z,8.60
2023-05-23T07:27:37.218Z,10.65
2023-05-23T07:30:16.714Z,10.13
2023-05-23T07:32:52.118Z,9.73
2023-05-23T07:35:27.872Z,11.00
2023-05-23T07:38:02.561Z,10.50
2023-05-23T07:40:40.434Z,11.88
2023-05-23T07:43:15.621Z,10.48
2023-05-23T07:45:52.177Z,9.52
2023-05-23T07:48:28.770Z,11.15
2023-05-23T07:51:04.327Z,10.85
2023-05-23T07:53:41.574Z,11.75
2023-05-23T07:56:19.092Z,16.85
2023-05-23T07:58:54.001Z,18.67
2023-05-23T08:01:31.364Z,12.57
2023-05-23T08:04:10.463Z,15.95
2023-05-23T08:07:04.270Z,12.70
2023-05-23T08:09:53.766Z,13.93
2023-05-23T08:12:30.288Z,15.23
2023-05-23T08:15:14.291Z,12.57
2023-05-23T08:17:58.526Z,15.25
2023-05-23T08:20:34.493Z,12.27
2023-05-23T08:23:09.781Z,16.30
2023-05-23T08:25:44.683Z,13.63
2023-05-23T08:28:19.773Z,16.52
2023-05-23T08:31:02.628Z,14.07
2023-05-23T08:33:40.825Z,12.27
2023-05-23T08:36:15.887Z,11.77
2023-05-23T08:38:52.716Z,14.95
2023-05-23T08:41:40.093Z,11.40
2023-05-23T08:44:19.590Z,11.13
2023-05-23T08:47:00.175Z,11.88
2023-05-23T08:50:06.734Z,11.35
2023-05-23T08:52:43.186Z,12.45
2023-05-23T08:55:18.946Z,13.70
2023-05-23T08:57:54.312Z,14.05
2023-05-23T09:00:48.960Z,12.63
2023-05-23T09:03:24.022Z,13.23
2023-05-23T09:06:26.543Z,17.55
2023-05-23T09:09:02.222Z,10.15
2023-05-23T09:11:37.830Z,15.60
2023-05-23T09:14:19.802Z,13.30
2023-05-23T09:17:00.849Z,14.85
2023-05-23T09:19:37.040Z,12.25
2023-05-23T09:22:29.581Z,15.63
2023-05-23T09:25:10.689Z,18.95
2023-05-23T09:27:49.355Z,15.60
2023-05-23T09:30:25.479Z,11.77
2023-05-23T09:33:05.816Z,14.45
2023-05-23T09:35:41.452Z,12.38
2023-05-23T09:38:19.050Z,15.40
2023-05-23T09:40:54.283Z,14.38
2023-05-23T09:43:30.176Z,12.82
2023-05-23T09:46:06.786Z,17.02
2023-05-23T09:48:42.070Z,12.57
2023-05-23T09:51:17.088Z,12.75
2023-05-23T09:53:53.876Z,13.70
2023-05-23T09:56:28.829Z,15.88
2023-05-23T09:59:04.910Z,15.70
2023-05-23T10:01:40.439Z,11.27
2023-05-23T10:04:15.625Z,11.30
2023-05-23T10:06:53.838Z,10.98
2023-05-23T10:09:32.872Z,14.93
2023-05-23T10:12:27.039Z,16.50
2023-05-23T10:15:03.173Z,11.90
2023-05-23T10:17:40.261Z,12.10
2023-05-23T10:20:16.812Z,12.68
2023-05-23T10:22:51.821Z,10.35
2023-05-23T10:25:30.833Z,16.23
2023-05-23T10:28:05.347Z,14.38
2023-05-23T10:30:41.009Z,13.40
2023-05-23T10:33:18.649Z,13.55
2023-05-23T10:35:56.816Z,12.30
2023-05-23T10:38:35.216Z,14.13
2023-05-23T10:41:16.653Z,12.20
2023-05-23T10:43:57.146Z,13.82
2023-05-23T10:46:53.921Z,11.90
2023-05-23T10:49:42.623Z,14.00
2023-05-23T10:52:21.476Z,14.88
2023-05-23T10:54:57.089Z,14.90
2023-05-23T10:57:33.688Z,13.02
2023-05-23T11:00:08.642Z,13.68
2023-05-23T11:02:44.192Z,12.13
2023-05-23T11:05:25.363Z,16.67
2023-05-23T11:08:15.430Z,16.38
2023-05-23T11:10:59.920Z,15.20
2023-05-23T11:13:49.214Z,16.38
2023-05-23T11:16:32.731Z,14.48
2023-05-23T11:19:27.446Z,17.15
2023-05-23T11:22:04.150Z,14.75
2023-05-23T11:24:59.794Z,12.75
2023-05-23T11:27:36.351Z,12.95
2023-05-23T11:30:15.008Z,13.82
2023-05-23T11:32:56.312Z,12.60
2023-05-23T11:35:32.182Z,13.82
2023-05-23T11:38:08.087Z,13.88
2023-05-23T11:40:44.889Z,17.23
2023-05-23T11:43:21.321Z,14.65
2023-05-23T11:45:56.577Z,14.93
2023-05-23T11:48:33.543Z,15.25
2023-05-23T11:51:07.977Z,17.77
2023-05-23T11:53:42.619Z,13.98
2023-05-23T11:56:18.953Z,16.38
2023-05-23T11:58:54.085Z,20.20
2023-05-23T12:01:35.478Z,13.77
2023-05-23T12:04:15.833Z,19.23
2023-05-23T12:06:52.744Z,16.25
2023-05-23T12:09:27.904Z,18.63
2023-05-23T12:12:03.180Z,15.70
2023-05-23T12:14:41.813Z,16.33
2023-05-23T12:17:17.931Z,17.65
2023-05-23T12:19:55.672Z,17.85
2023-05-23T12:22:30.690Z,17.30
2023-05-23T12:25:06.953Z,19.30
2023-05-23T12:27:42.558Z,17.27
2023-05-23T12:30:19.125Z,20.00
2023-05-23T12:32:54.119Z,22.30
2023-05-23T12:35:30.877Z,15.85
2023-05-23T12:38:08.680Z,19.40
2023-05-23T12:40:43.597Z,18.35
2023-05-23T12:43:21.834Z,21.75
2023-05-23T12:45:56.233Z,19.98
2023-05-23T12:48:31.776Z,18.70
2023-05-23T12:51:10.814Z,20.90
2023-05-23T12:53:45.592Z,17.70
2023-05-23T12:56:21.407Z,16.75
2023-05-23T12:58:57.401Z,19.42
2023-05-23T13:01:32.429Z,20.00
2023-05-23T13:04:08.985Z,13.35
2023-05-23T13:06:45.327Z,17.63
2023-05-23T13:09:20.484Z,18.73
2023-05-23T13:11:55.897Z,19.58
2023-05-23T13:14:30.550Z,15.82
2023-05-23T13:17:05.376Z,17.73
2023-05-23T13:19:40.970Z,19.90
2023-05-23T13:22:18.031Z,20.33
2023-05-23T13:24:52.910Z,19.45
2023-05-23T13:27:27.383Z,17.30
2023-05-23T13:30:02.748Z,16.15
2023-05-23T13:32:37.938Z,16.38
2023-05-23T13:35:12.863Z,16.73
2023-05-23T13:37:50.728Z,15.65
2023-05-23T13:40:26.743Z,17.50
2023-05-23T13:43:01.863Z,17.23
2023-05-23T13:45:37.028Z,19.27
2023-05-23T13:48:11.507Z,19.75
2023-05-23T13:50:46.665Z,20.00
2023-05-23T13:53:23.759Z,14.80
2023-05-23T13:55:58.739Z,19.00
2023-05-23T13:58:33.202Z,18.25
2023-05-23T14:01:08.329Z,17.35
2023-05-23T14:03:43.083Z,19.60
2023-05-23T14:06:17.741Z,17.35
2023-05-23T14:08:54.294Z,15.48
2023-05-23T14:11:30.860Z,16.55
2023-05-23T14:14:05.377Z,17.10
2023-05-23T14:16:41.427Z,17.48
2023-05-23T14:19:16.042Z,15.90
2023-05-23T14:21:51.485Z,14.48
2023-05-23T14:24:28.372Z,17.13
2023-05-23T14:27:04.222Z,16.40
2023-05-23T14:29:38.650Z,18.27
2023-05-23T14:32:14.006Z,17.63
2023-05-23T14:34:48.800Z,14.50
2023-05-23T14:37:23.477Z,19.42
2023-05-23T14:40:00.138Z,17.58
2023-05-23T14:42:35.565Z,17.30
2023-05-23T14:45:10.725Z,16.48
2023-05-23T14:47:45.321Z,16.50
2023-05-23T14:50:21.451Z,16.42
2023-05-23T14:52:56.016Z,19.02
2023-05-23T14:55:33.239Z,16.23
2023-05-23T14:58:08.025Z,16.63
2023-05-23T15:00:44.112Z,17.88
2023-05-23T15:03:19.666Z,16.67
2023-05-23T15:05:54.727Z,14.63
2023-05-23T15:08:30.597Z,19.45
2023-05-23T15:11:06.874Z,17.85
2023-05-23T15:13:42.195Z,16.20
2023-05-23T15:16:17.954Z,19.05
2023-05-23T15:18:52.915Z,15.55
2023-05-23T15:21:27.574Z,18.38
2023-05-23T15:24:02.869Z,14.75
2023-05-23T15:26:39.395Z,18.40
2023-05-23T15:29:15.691Z,17.17
2023-05-23T15:31:50.138Z,17.08
2023-05-23T15:34:25.535Z,16.45
2023-05-23T15:37:00.662Z,15.15
2023-05-23T15:39:35.404Z,17.52
2023-05-23T15:42:12.182Z,16.33
2023-05-23T15:44:47.535Z,14.43
2023-05-23T15:47:22.586Z,15.32
2023-05-23T15:49:57.456Z,18.00
2023-05-23T15:52:32.054Z,19.95
2023-05-23T15:55:07.821Z,16.88
2023-05-23T15:57:44.409Z,15.25
2023-05-23T16:00:19.459Z,14.00
2023-05-23T16:02:53.997Z,19.55
2023-05-23T16:05:29.812Z,19.88
2023-05-23T16:08:04.560Z,20.27
2023-05-23T16:10:39.299Z,19.10
2023-05-23T16:13:17.788Z,15.05
2023-05-23T16:15:53.836Z,16.45
2023-05-23T16:18:28.310Z,18.85
2023-05-23T16:21:03.233Z,16.58
2023-05-23T16:23:37.578Z,16.58
2023-05-23T16:26:13.051Z,19.15
2023-05-23T16:28:49.378Z,19.02
2023-05-23T16:31:30.429Z,14.50
2023-05-23T16:34:04.991Z,14.65
2023-05-23T16:36:40.643Z,17.27
2023-05-23T16:39:15.213Z,16.17
2023-05-23T16:41:49.815Z,16.83
2023-05-23T16:44:26.368Z,19.05
2023-05-23T16:47:02.175Z,19.42
2023-05-23T16:49:36.712Z,17.65
2023-05-23T16:52:11.468Z,16.80
2023-05-23T16:54:46.032Z,20.10
2023-05-23T16:57:22.502Z,17.25
2023-05-23T17:00:02.804Z,15.63
2023-05-23T17:02:37.881Z,14.13
2023-05-23T17:05:12.904Z,14.52
2023-05-23T17:07:48.774Z,17.73
2023-05-23T17:10:24.326Z,18.23
2023-05-23T17:12:59.145Z,16.42
2023-05-23T17:15:36.812Z,16.38
2023-05-23T17:18:12.809Z,16.42
2023-05-23T17:20:47.181Z,16.50
2023-05-23T17:23:22.547Z,14.73
2023-05-23T17:25:58.320Z,16.85
2023-05-23T17:28:34.885Z,14.68
2023-05-23T17:31:12.307Z,16.48
2023-05-23T17:33:48.519Z,20.15
2023-05-23T17:36:29.926Z,17.63
2023-05-23T17:39:05.357Z,16.48
2023-05-23T17:41:40.302Z,17.45
2023-05-23T17:44:14.925Z,15.27
2023-05-23T17:46:51.227Z,14.68
2023-05-23T17:49:27.371Z,14.70
2023-05-23T17:52:06.291Z,16.52
2023-05-23T17:54:41.198Z,17.02
2023-05-23T17:57:17.437Z,16.65
2023-05-23T17:59:52.892Z,13.45
2023-05-23T18:02:29.395Z,19.98
2023-05-23T18:05:04.220Z,14.20
2023-05-23T18:07:38.607Z,15.13
2023-05-23T18:10:14.962Z,13.77
2023-05-23T18:12:49.359Z,13.82
2023-05-23T18:15:24.096Z,16.55
2023-05-23T18:18:00.438Z,14.95
2023-05-23T18:20:36.924Z,15.73
2023-05-23T18:23:12.371Z,13.20
2023-05-23T18:25:47.147Z,15.35
2023-05-23T18:28:22.089Z,15.10
2023-05-23T18:30:57.737Z,16.15
2023-05-23T18:33:34.116Z,13.63
2023-05-23T18:36:08.825Z,12.20
2023-05-23T18:38:43.557Z,13.98
2023-05-23T18:41:18.979Z,12.10
2023-05-23T18:43:54.617Z,16.05
2023-05-23T18:46:29.358Z,19.40
2023-05-23T18:49:06.723Z,18.15
2023-05-23T18:51:42.139Z,17.00
2023-05-23T18:54:16.956Z,17.67
2023-05-23T18:56:52.411Z,15.25
2023-05-23T18:59:27.384Z,16.75
2023-05-23T19:02:03.284Z,15.38
2023-05-23T19:04:41.468Z,17.30
2023-05-23T19:07:16.471Z,12.80
2023-05-23T19:09:51.130Z,18.55
2023-05-23T19:12:26.940Z,16.88
2023-05-23T19:15:02.038Z,17.48
2023-05-23T19:17:37.133Z,14.65
2023-05-23T19:20:15.437Z,16.20
2023-05-23T19:22:52.753Z,17.05
2023-05-23T19:25:27.858Z,13.75
2023-05-23T19:28:02.772Z,13.07
2023-05-23T19:30:37.366Z,16.92
2023-05-23T19:33:13.230Z,13.50
2023-05-23T19:35:50.194Z,13.60
2023-05-23T19:38:25.299Z,14.98
2023-05-23T19:41:00.110Z,13.05
2023-05-23T19:43:36.487Z,12.25
2023-05-23T19:46:11.175Z,13.98
2023-05-23T19:48:47.199Z,14.82
2023-05-23T19:51:23.933Z,13.40
2023-05-23T19:54:00.216Z,10.65
2023-05-23T19:56:36.004Z,14.52
2023-05-23T19:59:10.865Z,14.75
2023-05-23T20:01:46.196Z,14.90
2023-05-23T20:04:25.692Z,11.13
2023-05-23T20:07:03.622Z,12.52
2023-05-23T20:09:39.035Z,14.05
2023-05-23T20:12:13.616Z,10.75
2023-05-23T20:14:49.568Z,10.45
2023-05-23T20:17:25.410Z,11.48
2023-05-23T20:20:00.557Z,11.77
2023-05-23T20:22:37.069Z,10.35
2023-05-23T20:25:13.785Z,12.20
2023-05-23T20:27:48.325Z,9.57
2023-05-23T20:30:23.299Z,9.68
2023-05-23T20:32:58.308Z,9.20
2023-05-23T20:35:33.992Z,13.15
2023-05-23T20:38:10.608Z,8.88
2023-05-23T20:40:51.594Z,12.13
2023-05-23T20:43:27.555Z,9.48
2023-05-23T20:46:03.266Z,10.00
2023-05-23T20:48:37.720Z,10.30
2023-05-23T20:51:12.423Z,12.18
2023-05-23T20:53:48.975Z,10.82
2023-05-23T20:56:24.398Z,10.63
2023-05-23T20:58:59.141Z,7.55
2023-05-23T21:01:34.671Z,9.15
2023-05-23T21:04:09.455Z,12.00
2023-05-23T21:06:44.987Z,9.80
2023-05-23T21:09:21.443Z,9.05
2023-05-23T21:11:56.163Z,9.15
2023-05-23T21:14:30.810Z,13.02
2023-05-23T21:17:06.564Z,9.80
2023-05-23T21:19:40.991Z,9.77
2023-05-23T21:22:15.669Z,7.40
2023-05-23T21:24:52.602Z,9.48
2023-05-23T21:27:28.488Z,8.05
2023-05-23T21:30:03.000Z,6.95
2023-05-23T21:32:38.196Z,9.43
2023-05-23T21:35:12.880Z,7.68
2023-05-23T21:37:48.140Z,12.02
2023-05-23T21:40:24.586Z,7.68
2023-05-23T21:42:59.844Z,8.35
2023-05-23T21:45:34.587Z,8.35
2023-05-23T21:48:10.531Z,9.25
2023-05-23T21:50:44.937Z,6.10
2023-05-23T21:53:19.705Z,8.80
2023-05-23T21:55:56.139Z,5.97
2023-05-23T21:58:31.978Z,8.52
2023-05-23T22:01:06.637Z,8.00
2023-05-23T22:03:41.382Z,8.88
2023-05-23T22:06:15.976Z,9.82
2023-05-23T22:08:51.498Z,6.93
2023-05-23T22:11:31.129Z,8.25
2023-05-23T22:14:05.735Z,12.60
2023-05-23T22:16:42.517Z,8.60
2023-05-23T22:19:19.735Z,9.07
2023-05-23T22:21:55.953Z,11.98
2023-05-23T22:24:31.512Z,10.15
2023-05-23T22:27:08.113Z,7.13
2023-05-23T22:29:43.364Z,7.47
2023-05-23T22:32:17.736Z,9.38
2023-05-23T22:34:52.447Z,12.88
2023-05-23T22:37:26.867Z,13.02
2023-05-23T22:40:02.740Z,13.63
2023-05-23T22:42:40.158Z,10.07
2023-05-23T22:45:15.243Z,13.27
2023-05-23T22:47:49.992Z,11.73
2023-05-23T22:50:28.635Z,13.65
2023-05-23T22:53:02.992Z,11.18
2023-05-23T22:55:40.645Z,12.80
2023-05-23T22:58:17.252Z,14.45
2023-05-23T23:00:53.220Z,9.35
2023-05-23T23:03:27.673Z,9.88
2023-05-23T23:06:02.301Z,9.02
2023-05-23T23:08:36.654Z,12.55
2023-05-23T23:11:12.467Z,9.45
2023-05-23T23:13:48.770Z,11.80
2023-05-23T23:16:23.546Z,10.27
2023-05-23T23:18:58.238Z,12.98
2023-05-23T23:21:34.706Z,9.10
2023-05-23T23:24:09.596Z,8.88
2023-05-23T23:26:44.304Z,9.05
2023-05-23T23:29:20.603Z,10.45
2023-05-23T23:31:59.128Z,11.35
2023-05-23T23:34:33.629Z,8.05
2023-05-23T23:37:08.266Z,7.30
2023-05-23T23:39:42.624Z,11.90
2023-05-23T23:42:18.185Z,8.73
2023-05-23T23:44:54.835Z,8.70
2023-05-23T23:47:29.376Z,11.63
2023-05-23T23:50:03.822Z,10.02
2023-05-23T23:52:40.555Z,8.93
2023-05-23T23:55:15.206Z,7.45
2023-05-23T23:57:49.881Z,8.15
